createdAt,value
2018-05-06T00:02:18.564Z,15.20
2018-05-06T00:04:44.526Z,15.20
2018-05-06T00:07:10.503Z,15.20
2018-05-06T00:09:37.224Z,15.20
2018-05-06T00:12:03.192Z,15.20
2018-05-06T00:14:29.950Z,15.30
2018-05-06T00:16:55.985Z,15.30
2018-05-06T00:19:21.970Z,15.40
2018-05-06T00:21:47.954Z,15.30
2018-05-06T00:24:14.655Z,15.30
2018-05-06T00:26:40.740Z,15.30
2018-05-06T00:29:07.446Z,15.00
2018-05-06T00:31:33.455Z,15.00
2018-05-06T00:36:31.252Z,15.10
2018-05-06T00:38:57.293Z,15.10
2018-05-06T00:41:23.267Z,15.00
2018-05-06T00:43:49.519Z,15.00
2018-05-06T00:46:15.479Z,15.00
2018-05-06T00:48:42.175Z,14.90
2018-05-06T00:51:08.843Z,15.00
2018-05-06T00:53:34.794Z,14.90
2018-05-06T00:56:00.767Z,14.90
2018-05-06T00:58:27.035Z,15.00
2018-05-06T01:00:53.017Z,14.80
2018-05-06T01:03:18.981Z,14.90
2018-05-06T01:05:45.006Z,14.90
2018-05-06T01:08:11.736Z,14.90
2018-05-06T01:10:37.725Z,14.90
2018-05-06T01:13:03.723Z,14.90
2018-05-06T01:15:30.430Z,14.80
2018-05-06T01:17:56.414Z,14.80
2018-05-06T01:20:23.150Z,14.90
2018-05-06T01:22:49.106Z,14.80
2018-05-06T01:25:16.066Z,14.70
2018-05-06T01:27:42.874Z,14.60
2018-05-06T01:30:08.841Z,14.60
2018-05-06T01:32:34.814Z,14.60
2018-05-06T01:35:01.530Z,14.60
2018-05-06T01:37:27.504Z,14.60
2018-05-06T01:39:53.462Z,14.50
2018-05-06T01:42:19.447Z,14.50
2018-05-06T01:44:46.142Z,14.30
2018-05-06T01:47:12.111Z,14.30
2018-05-06T01:49:38.081Z,14.40
2018-05-06T01:52:04.051Z,14.50
2018-05-06T01:54:30.050Z,14.30
2018-05-06T01:56:56.118Z,14.50
2018-05-06T01:59:22.077Z,14.30
2018-05-06T02:01:48.038Z,14.20
2018-05-06T02:04:14.009Z,14.30
2018-05-06T02:06:39.984Z,14.40
2018-05-06T02:09:05.942Z,14.40
2018-05-06T02:11:32.107Z,14.30
2018-05-06T02:13:58.098Z,14.30
2018-05-06T02:16:24.119Z,14.20
2018-05-06T02:18:50.134Z,14.10
2018-05-06T02:21:16.089Z,14.20
2018-05-06T02:23:42.046Z,14.10
2018-05-06T02:26:08.090Z,14.10
2018-05-06T02:28:34.060Z,14.00
2018-05-06T02:31:00.762Z,14.10
2018-05-06T02:33:26.778Z,14.10
2018-05-06T02:35:52.746Z,13.90
2018-05-06T02:38:18.716Z,13.80
2018-05-06T02:40:44.744Z,13.80
2018-05-06T02:43:10.714Z,13.80
2018-05-06T02:45:36.671Z,13.90
2018-05-06T02:48:02.642Z,13.80
2018-05-06T02:50:29.358Z,14.00
2018-05-06T02:52:55.339Z,14.00
2018-05-06T02:55:21.306Z,13.90
2018-05-06T02:57:47.274Z,13.90
2018-05-06T03:00:13.229Z,13.90
2018-05-06T03:02:39.942Z,14.00
2018-05-06T03:05:05.920Z,14.00
2018-05-06T03:07:32.618Z,13.80
2018-05-06T03:09:58.658Z,13.80
2018-05-06T03:12:24.634Z,13.80
2018-05-06T03:14:50.597Z,13.70
2018-05-06T03:17:16.574Z,13.70
2018-05-06T03:19:42.529Z,13.70
2018-05-06T03:22:08.500Z,13.60
2018-05-06T03:24:41.418Z,13.50
2018-05-06T03:27:07.494Z,13.40
2018-05-06T03:29:33.450Z,13.40
2018-05-06T03:32:00.387Z,13.40
2018-05-06T03:34:26.363Z,13.40
2018-05-06T03:36:52.309Z,13.30
2018-05-06T03:39:18.315Z,13.40
2018-05-06T03:41:44.261Z,13.30
2018-05-06T03:44:10.954Z,13.60
2018-05-06T03:46:36.913Z,13.50
2018-05-06T03:49:02.877Z,13.60
2018-05-06T03:51:29.594Z,13.50
2018-05-06T03:53:55.746Z,13.40
2018-05-06T03:59:46.998Z,13.40
2018-05-06T04:05:09.797Z,13.40
2018-05-06T04:07:35.761Z,13.30
2018-05-06T04:10:01.752Z,13.30
2018-05-06T04:12:27.789Z,13.40
2018-05-06T04:14:53.856Z,13.50
2018-05-06T04:17:19.813Z,13.60
2018-05-06T04:19:46.521Z,13.60
2018-05-06T04:22:12.478Z,13.60
2018-05-06T04:24:38.449Z,13.60
2018-05-06T04:27:05.172Z,13.40
2018-05-06T04:29:31.253Z,13.40
2018-05-06T04:31:57.223Z,13.40
2018-05-06T04:34:23.241Z,13.50
2018-05-06T04:36:49.198Z,13.50
2018-05-06T04:39:15.179Z,13.60
2018-05-06T04:41:41.906Z,13.70
2018-05-06T04:44:07.934Z,13.60
2018-05-06T04:46:34.570Z,13.60
2018-05-06T04:49:00.533Z,13.60
2018-05-06T04:51:26.493Z,13.70
2018-05-06T04:53:52.455Z,13.90
2018-05-06T04:56:18.451Z,14.00
2018-05-06T04:58:45.142Z,14.30
2018-05-06T05:01:18.125Z,14.30
2018-05-06T05:03:44.092Z,14.90
2018-05-06T05:06:10.041Z,15.80
2018-05-06T05:08:36.046Z,16.50
2018-05-06T05:11:02.037Z,16.50
2018-05-06T05:13:28.030Z,17.40
2018-05-06T05:15:54.045Z,19.30
2018-05-06T05:18:20.015Z,21.20
2018-05-06T05:20:46.070Z,21.70
2018-05-06T05:23:12.098Z,23.00
2018-05-06T05:25:38.055Z,24.60
2018-05-06T05:28:04.019Z,25.10
2018-05-06T05:30:30.068Z,25.00
2018-05-06T05:32:56.179Z,25.50
2018-05-06T05:35:22.889Z,26.70
2018-05-06T05:37:48.902Z,26.70
2018-05-06T05:40:14.874Z,27.50
2018-05-06T05:42:40.839Z,27.20
2018-05-06T05:45:07.583Z,27.20
2018-05-06T05:47:34.285Z,27.60
2018-05-06T05:50:00.274Z,27.70
2018-05-06T05:52:27.041Z,28.50
2018-05-06T05:54:53.005Z,28.40
2018-05-06T05:57:18.967Z,28.60
2018-05-06T05:59:44.942Z,28.70
2018-05-06T06:02:11.807Z,30.60
2018-05-06T06:04:37.843Z,30.60
2018-05-06T06:07:04.556Z,31.10
2018-05-06T06:09:30.561Z,31.00
2018-05-06T06:11:56.570Z,30.60
2018-05-06T06:14:22.664Z,31.10
2018-05-06T06:16:48.623Z,32.00
2018-05-06T06:19:15.343Z,30.90
2018-05-06T06:21:41.329Z,30.90
2018-05-06T06:24:07.281Z,31.20
2018-05-06T06:26:33.246Z,30.50
2018-05-06T06:28:59.809Z,31.20
2018-05-06T06:31:25.815Z,32.30
2018-05-06T06:33:51.777Z,31.30
2018-05-06T06:36:18.119Z,31.10
2018-05-06T06:38:44.081Z,31.80
2018-05-06T06:41:10.040Z,33.40
2018-05-06T06:43:36.747Z,35.70
2018-05-06T06:46:02.706Z,35.50
2018-05-06T06:48:28.722Z,34.70
2018-05-06T06:50:54.721Z,34.30
2018-05-06T06:53:20.675Z,33.80
2018-05-06T06:55:46.695Z,33.00
2018-05-06T06:58:13.402Z,35.70
2018-05-06T07:00:39.354Z,35.70
2018-05-06T07:03:06.062Z,37.10
2018-05-06T07:05:32.040Z,37.00
2018-05-06T07:07:58.792Z,35.70
2018-05-06T07:10:25.512Z,35.10
2018-05-06T07:12:51.515Z,35.10
2018-05-06T07:15:17.516Z,35.20
2018-05-06T07:17:44.249Z,34.70
2018-05-06T07:20:10.247Z,34.60
2018-05-06T07:22:36.229Z,35.50
2018-05-06T07:25:02.192Z,35.30
2018-05-06T07:27:29.322Z,33.70
2018-05-06T07:29:55.358Z,33.60
2018-05-06T07:32:21.257Z,35.60
2018-05-06T07:34:47.234Z,36.50
2018-05-06T07:37:13.199Z,33.40
2018-05-06T07:39:39.159Z,32.20
2018-05-06T07:42:06.549Z,31.60
2018-05-06T07:44:32.518Z,31.50
2018-05-06T07:46:59.237Z,33.20
2018-05-06T07:49:25.224Z,33.20
2018-05-06T07:51:51.213Z,34.30
2018-05-06T07:54:17.181Z,32.60
2018-05-06T07:56:44.002Z,31.90
2018-05-06T07:59:09.976Z,31.80
2018-05-06T08:01:36.724Z,33.10
2018-05-06T08:04:03.455Z,33.50
2018-05-06T08:06:29.451Z,33.60
2018-05-06T08:08:55.461Z,32.00
2018-05-06T08:11:21.431Z,31.60
2018-05-06T08:13:47.444Z,32.20
2018-05-06T08:16:13.449Z,32.10
2018-05-06T08:18:39.776Z,33.50
2018-05-06T08:21:05.735Z,32.90
2018-05-06T08:23:32.473Z,33.60
2018-05-06T08:25:58.473Z,33.60
2018-05-06T08:28:24.491Z,32.60
2018-05-06T08:30:50.483Z,32.70
2018-05-06T08:33:16.442Z,31.30
2018-05-06T08:35:42.429Z,31.40
2018-05-06T08:38:08.406Z,33.00
2018-05-06T08:40:35.130Z,34.10
2018-05-06T08:43:01.142Z,34.10
2018-05-06T08:45:27.235Z,32.80
2018-05-06T08:47:53.190Z,33.00
2018-05-06T08:50:19.162Z,33.10
2018-05-06T08:52:45.195Z,33.80
2018-05-06T08:55:11.162Z,34.10
2018-05-06T08:57:37.137Z,33.50
2018-05-06T09:00:03.114Z,33.50
2018-05-06T09:02:29.121Z,33.30
2018-05-06T09:04:55.147Z,32.90
2018-05-06T09:07:21.338Z,31.40
2018-05-06T09:09:48.081Z,32.80
2018-05-06T09:12:14.050Z,32.80
2018-05-06T09:14:40.044Z,31.10
2018-05-06T09:17:06.035Z,29.90
2018-05-06T09:19:32.784Z,28.40
2018-05-06T09:21:59.745Z,28.30
2018-05-06T09:24:26.510Z,26.30
2018-05-06T09:26:52.594Z,26.20
2018-05-06T09:29:21.987Z,25.00
2018-05-06T09:31:47.993Z,24.70
2018-05-06T09:34:14.019Z,23.50
2018-05-06T09:36:41.078Z,22.70
2018-05-06T09:39:08.102Z,22.10
2018-05-06T09:41:34.079Z,22.00
2018-05-06T09:44:07.906Z,21.60
2018-05-06T09:46:33.924Z,21.50
2018-05-06T09:49:00.757Z,21.80
2018-05-06T09:51:26.751Z,21.80
2018-05-06T09:53:52.805Z,21.50
2018-05-06T09:56:19.482Z,21.60
2018-05-06T09:58:45.454Z,21.70
2018-05-06T10:01:12.149Z,21.60
2018-05-06T10:03:38.510Z,21.60
2018-05-06T10:06:04.473Z,21.30
2018-05-06T10:08:31.217Z,21.20
2018-05-06T10:10:57.315Z,21.20
2018-05-06T10:13:23.696Z,21.50
2018-05-06T10:15:49.717Z,21.40
2018-05-06T10:18:15.642Z,21.40
2018-05-06T10:20:41.646Z,21.40
2018-05-06T10:23:07.683Z,21.20
2018-05-06T10:25:33.667Z,21.30
2018-05-06T10:27:59.772Z,21.50
2018-05-06T10:30:25.777Z,21.50
2018-05-06T10:32:52.494Z,21.40
2018-05-06T10:35:18.455Z,21.40
2018-05-06T10:37:46.558Z,21.40
2018-05-06T10:40:12.538Z,21.70
2018-05-06T10:42:38.513Z,21.70
2018-05-06T10:45:05.248Z,21.70
2018-05-06T10:47:31.563Z,21.70
2018-05-06T10:49:57.673Z,21.90
2018-05-06T10:52:23.652Z,21.90
2018-05-06T10:54:49.610Z,21.90
2018-05-06T10:57:16.443Z,22.00
2018-05-06T10:59:42.403Z,22.00
2018-05-06T11:02:09.110Z,22.10
2018-05-06T11:04:35.099Z,22.10
2018-05-06T11:07:01.897Z,22.20
2018-05-06T11:09:29.795Z,22.20
2018-05-06T11:11:55.784Z,22.20
2018-05-06T11:14:21.758Z,22.00
2018-05-06T11:16:47.706Z,22.00
2018-05-06T11:19:13.714Z,22.30
2018-05-06T11:21:39.682Z,22.30
2018-05-06T11:24:05.635Z,22.30
2018-05-06T11:26:33.383Z,22.40
2018-05-06T11:29:00.049Z,22.40
2018-05-06T11:31:26.149Z,22.50
2018-05-06T11:33:52.153Z,22.50
2018-05-06T11:36:18.870Z,22.70
2018-05-06T11:38:44.826Z,22.70
2018-05-06T11:41:11.654Z,22.60
2018-05-06T11:43:37.783Z,22.60
2018-05-06T11:46:03.789Z,22.60
2018-05-06T11:48:29.804Z,22.60
2018-05-06T11:50:55.855Z,22.60
2018-05-06T11:53:21.842Z,22.50
2018-05-06T11:55:47.802Z,22.70
2018-05-06T11:58:14.517Z,23.00
2018-05-06T12:00:40.476Z,22.90
2018-05-06T12:03:06.459Z,23.00
2018-05-06T12:05:32.433Z,22.90
2018-05-06T12:07:58.422Z,22.80
2018-05-06T12:10:26.058Z,22.90
2018-05-06T12:12:52.062Z,23.00
2018-05-06T12:15:18.018Z,23.00
2018-05-06T12:17:43.994Z,23.00
2018-05-06T12:20:09.970Z,23.00
2018-05-06T12:22:35.941Z,23.10
2018-05-06T12:25:02.668Z,23.00
2018-05-06T12:27:28.653Z,23.00
2018-05-06T12:29:55.412Z,23.10
2018-05-06T12:32:21.366Z,23.10
2018-05-06T12:34:47.330Z,23.20
2018-05-06T12:37:13.302Z,23.20
2018-05-06T12:39:40.010Z,23.00
2018-05-06T12:42:05.995Z,23.00
2018-05-06T12:44:33.112Z,23.00
2018-05-06T12:46:59.128Z,23.00
2018-05-06T12:49:25.268Z,23.30
2018-05-06T12:51:51.217Z,23.30
2018-05-06T12:54:17.174Z,23.40
2018-05-06T12:56:43.590Z,23.40
2018-05-06T12:59:09.621Z,23.50
2018-05-06T13:01:35.585Z,23.50
2018-05-06T13:04:04.808Z,23.60
2018-05-06T13:06:32.117Z,23.60
2018-05-06T13:08:58.464Z,23.60
2018-05-06T13:11:24.476Z,23.60
2018-05-06T13:13:50.883Z,23.60
2018-05-06T13:16:16.859Z,23.60
2018-05-06T13:18:42.814Z,23.70
2018-05-06T13:21:08.882Z,23.60
2018-05-06T13:23:34.866Z,23.50
2018-05-06T13:26:00.867Z,23.40
2018-05-06T13:28:27.182Z,23.50
2018-05-06T13:30:53.163Z,23.50
2018-05-06T13:33:19.873Z,23.70
2018-05-06T13:35:45.838Z,23.60
2018-05-06T13:38:11.814Z,23.60
2018-05-06T13:40:37.790Z,23.50
2018-05-06T13:43:04.803Z,23.50
2018-05-06T13:45:30.814Z,23.40
2018-05-06T13:47:57.537Z,23.50
2018-05-06T13:50:30.758Z,23.50
2018-05-06T13:52:56.740Z,23.50
2018-05-06T13:55:22.702Z,23.60
2018-05-06T13:57:51.387Z,23.70
2018-05-06T14:00:17.369Z,23.70
2018-05-06T14:02:43.331Z,23.80
2018-05-06T14:05:10.062Z,23.90
2018-05-06T14:07:36.017Z,23.90
2018-05-06T14:10:01.995Z,23.80
2018-05-06T14:12:28.014Z,23.90
2018-05-06T14:14:53.998Z,23.80
2018-05-06T14:17:19.946Z,23.80
2018-05-06T14:19:46.733Z,23.80
2018-05-06T14:22:12.686Z,23.70
2018-05-06T14:24:38.633Z,23.70
2018-05-06T14:27:05.643Z,23.70
2018-05-06T14:29:31.652Z,23.60
2018-05-06T14:31:57.674Z,23.60
2018-05-06T14:34:23.674Z,23.70
2018-05-06T14:36:49.633Z,23.70
2018-05-06T14:39:15.590Z,23.80
2018-05-06T14:41:41.918Z,23.80
2018-05-06T14:44:07.877Z,23.80
2018-05-06T14:46:46.263Z,23.80
2018-05-06T14:49:12.210Z,23.90
2018-05-06T14:51:38.170Z,24.00
2018-05-06T14:54:04.157Z,23.90
2018-05-06T14:56:30.201Z,23.80
2018-05-06T14:58:56.231Z,23.80
2018-05-06T15:01:22.402Z,23.80
2018-05-06T15:03:48.379Z,23.80
2018-05-06T15:06:14.354Z,23.80
2018-05-06T15:08:40.341Z,23.80
2018-05-06T15:11:07.064Z,23.80
2018-05-06T15:13:33.051Z,23.70
2018-05-06T15:15:59.108Z,23.70
2018-05-06T15:18:25.143Z,23.70
2018-05-06T15:20:51.094Z,23.70
2018-05-06T15:23:17.170Z,23.70
2018-05-06T15:25:43.910Z,23.90
2018-05-06T15:28:09.897Z,23.90
2018-05-06T15:30:35.909Z,23.90
2018-05-06T15:33:02.210Z,23.80
2018-05-06T15:35:28.960Z,23.80
2018-05-06T15:37:55.018Z,23.80
2018-05-06T15:40:21.722Z,23.80
2018-05-06T15:42:47.698Z,23.80
2018-05-06T15:45:13.693Z,23.90
2018-05-06T15:47:39.657Z,23.80
2018-05-06T15:50:05.614Z,23.80
2018-05-06T15:52:31.763Z,23.90
2018-05-06T15:54:57.996Z,23.90
2018-05-06T15:57:24.733Z,23.90
2018-05-06T15:59:50.751Z,23.70
2018-05-06T16:05:28.448Z,23.80
2018-05-06T16:07:54.503Z,23.80
2018-05-06T16:10:20.857Z,23.80
2018-05-06T16:12:46.851Z,23.80
2018-05-06T16:15:13.881Z,23.70
2018-05-06T16:17:39.881Z,23.70
2018-05-06T16:20:05.853Z,23.70
2018-05-06T16:22:31.941Z,23.70
2018-05-06T16:24:57.878Z,23.70
2018-05-06T16:27:23.889Z,23.70
2018-05-06T16:29:50.610Z,23.70
2018-05-06T16:32:16.561Z,23.60
2018-05-06T16:34:42.525Z,23.60
2018-05-06T16:37:09.230Z,23.60
2018-05-06T16:39:35.193Z,23.70
2018-05-06T16:42:01.219Z,23.60
2018-05-06T16:44:27.995Z,23.50
2018-05-06T16:46:54.006Z,23.40
2018-05-06T16:49:20.005Z,23.50
2018-05-06T16:51:45.975Z,23.40
2018-05-06T16:54:11.934Z,23.30
2018-05-06T16:56:38.673Z,23.30
2018-05-06T16:59:04.657Z,23.30
2018-05-06T17:01:30.727Z,23.20
2018-05-06T17:03:56.841Z,23.20
2018-05-06T17:06:22.829Z,23.20
2018-05-06T17:08:48.791Z,23.20
2018-05-06T17:11:14.979Z,23.10
2018-05-06T17:13:40.946Z,23.10
2018-05-06T17:16:07.670Z,22.90
2018-05-06T17:18:33.700Z,22.90
2018-05-06T17:21:00.502Z,22.90
2018-05-06T17:23:27.234Z,22.80
2018-05-06T17:25:53.972Z,22.80
2018-05-06T17:28:19.959Z,22.70
2018-05-06T17:30:45.930Z,22.80
2018-05-06T17:33:11.902Z,22.60
2018-05-06T17:35:38.615Z,22.50
2018-05-06T17:38:04.582Z,22.50
2018-05-06T17:40:30.691Z,22.50
2018-05-06T17:42:56.674Z,22.40
2018-05-06T17:45:22.953Z,22.40
2018-05-06T17:47:48.923Z,22.40
2018-05-06T17:50:14.879Z,22.20
2018-05-06T17:52:41.626Z,22.10
2018-05-06T17:55:08.366Z,22.10
2018-05-06T17:57:34.326Z,22.10
2018-05-06T18:00:01.067Z,21.90
2018-05-06T18:02:27.835Z,21.80
2018-05-06T18:04:53.834Z,21.80
2018-05-06T18:07:19.837Z,21.80
2018-05-06T18:09:45.997Z,21.70
2018-05-06T18:12:11.950Z,21.70
2018-05-06T18:14:37.909Z,21.50
2018-05-06T18:17:04.642Z,21.40
2018-05-06T18:19:30.665Z,21.40
2018-05-06T18:21:56.690Z,21.30
2018-05-06T18:24:22.674Z,21.30
2018-05-06T18:26:49.357Z,21.10
2018-05-06T18:29:15.318Z,21.10
2018-05-06T18:31:41.456Z,20.90
2018-05-06T18:34:07.413Z,20.90
2018-05-06T18:36:34.120Z,20.70
2018-05-06T18:39:00.122Z,20.70
2018-05-06T18:41:26.957Z,20.70
2018-05-06T18:43:52.942Z,20.70
2018-05-06T18:46:18.937Z,20.70
2018-05-06T18:48:45.654Z,20.40
2018-05-06T18:51:11.602Z,20.30
2018-05-06T18:53:37.568Z,20.30
2018-05-06T18:56:04.527Z,20.30
2018-05-06T18:58:31.266Z,20.20
2018-05-06T19:00:58.029Z,20.10
2018-05-06T19:03:24.774Z,20.00
2018-05-06T19:05:50.731Z,20.00
2018-05-06T19:08:16.702Z,20.00
2018-05-06T19:10:42.772Z,19.80
2018-05-06T19:13:08.716Z,19.80
2018-05-06T19:15:35.421Z,19.60
2018-05-06T19:18:01.402Z,19.50
2018-05-06T19:20:27.395Z,19.60
2018-05-06T19:22:54.390Z,19.60
2018-05-06T19:25:21.098Z,19.50
2018-05-06T19:27:47.044Z,19.50
2018-05-06T19:30:13.031Z,19.40
2018-05-06T19:32:39.801Z,19.40
2018-05-06T19:35:05.690Z,19.40
2018-05-06T19:37:31.839Z,19.30
2018-05-06T19:39:57.818Z,19.20
2018-05-06T19:42:23.972Z,19.30
2018-05-06T19:44:49.959Z,19.30
2018-05-06T19:47:16.666Z,19.10
2018-05-06T19:49:42.642Z,19.00
2018-05-06T19:52:09.352Z,19.00
2018-05-06T19:54:35.297Z,19.00
2018-05-06T19:57:01.462Z,19.00
2018-05-06T19:59:28.426Z,18.90
2018-05-06T20:01:54.866Z,18.80
2018-05-06T20:04:20.820Z,18.90
2018-05-06T20:06:47.563Z,18.90
2018-05-06T20:09:13.514Z,18.90
2018-05-06T20:11:40.210Z,18.80
2018-05-06T20:14:13.173Z,18.80
2018-05-06T20:16:39.927Z,18.80
2018-05-06T20:19:05.886Z,18.80
2018-05-06T20:21:32.742Z,18.80
2018-05-06T20:23:58.727Z,18.70
2018-05-06T20:26:24.733Z,18.90
2018-05-06T20:28:50.719Z,18.80
2018-05-06T20:31:17.495Z,18.70
2018-05-06T20:33:43.368Z,18.70
2018-05-06T20:36:09.368Z,18.70
2018-05-06T20:38:35.342Z,18.60
2018-05-06T20:41:01.595Z,18.60
2018-05-06T20:43:27.838Z,18.50
2018-05-06T20:45:53.791Z,18.50
2018-05-06T20:48:20.495Z,18.50
2018-05-06T20:50:46.511Z,18.40
2018-05-06T20:53:12.466Z,18.30
2018-05-06T20:55:38.430Z,18.30
2018-05-06T20:58:04.427Z,18.30
2018-05-06T21:00:30.461Z,18.30
2018-05-06T21:02:56.549Z,18.40
2018-05-06T21:05:22.710Z,18.30
2018-05-06T21:07:48.634Z,18.20
2018-05-06T21:10:15.337Z,18.10
2018-05-06T21:12:41.366Z,18.10
2018-05-06T21:15:07.314Z,18.20
2018-05-06T21:17:33.269Z,18.10
2018-05-06T21:20:01.032Z,18.00
2018-05-06T21:22:27.071Z,18.00
2018-05-06T21:24:53.038Z,18.00
2018-05-06T21:27:20.362Z,17.90
2018-05-06T21:29:46.339Z,17.90
2018-05-06T21:32:12.265Z,17.90
2018-05-06T21:34:38.993Z,17.80
2018-05-06T21:37:05.035Z,17.80
2018-05-06T21:39:31.649Z,17.80
2018-05-06T21:41:57.839Z,17.70
2018-05-06T21:44:24.724Z,17.70
2018-05-06T21:46:51.400Z,17.80
2018-05-06T21:49:17.381Z,17.80
2018-05-06T21:51:43.335Z,17.70
2018-05-06T21:54:09.290Z,17.70
2018-05-06T21:56:35.466Z,17.60
2018-05-06T21:59:01.445Z,17.60
2018-05-06T22:01:28.181Z,17.60
2018-05-06T22:03:54.166Z,17.60
2018-05-06T22:06:20.154Z,17.50
2018-05-06T22:08:46.110Z,17.60
2018-05-06T22:11:12.846Z,17.50
2018-05-06T22:13:39.625Z,17.40
2018-05-06T22:16:05.833Z,17.40
2018-05-06T22:18:31.937Z,17.30
2018-05-06T22:20:57.956Z,17.30
2018-05-06T22:23:23.926Z,17.40
2018-05-06T22:25:49.895Z,17.40
2018-05-06T22:28:16.581Z,17.20
2018-05-06T22:30:42.537Z,17.20
2018-05-06T22:33:08.525Z,17.20
2018-05-06T22:35:34.489Z,17.30
2018-05-06T22:38:00.475Z,17.30
2018-05-06T22:40:27.250Z,17.20
2018-05-06T22:42:53.205Z,17.20
2018-05-06T22:45:19.166Z,17.10
2018-05-06T22:47:45.143Z,17.10
2018-05-06T22:50:11.829Z,16.90
2018-05-06T22:52:37.801Z,16.90
2018-05-06T22:55:03.779Z,16.90
2018-05-06T22:57:29.797Z,16.90
2018-05-06T22:59:55.798Z,17.00
2018-05-06T23:02:21.814Z,16.90
2018-05-06T23:04:47.781Z,16.80
2018-05-06T23:07:13.726Z,16.90
2018-05-06T23:09:39.694Z,16.80
2018-05-06T23:12:05.645Z,16.70
2018-05-06T23:14:31.615Z,16.70
2018-05-06T23:16:57.799Z,16.70
2018-05-06T23:19:23.755Z,16.60
2018-05-06T23:21:49.710Z,16.60
2018-05-06T23:24:15.714Z,16.50
2018-05-06T23:26:41.674Z,16.50
2018-05-06T23:29:07.651Z,16.70
2018-05-06T23:31:33.624Z,16.60
2018-05-06T23:33:59.594Z,16.50
2018-05-06T23:36:25.653Z,16.40
2018-05-06T23:38:51.765Z,16.50
2018-05-06T23:41:17.764Z,16.30
2018-05-06T23:43:43.730Z,16.30
2018-05-06T23:46:09.689Z,16.30
2018-05-06T23:48:35.669Z,16.20
2018-05-06T23:51:02.349Z,16.00
2018-05-06T23:53:29.018Z,15.90
2018-05-06T23:55:54.986Z,16.00
2018-05-06T23:58:21.686Z,15.90
